Time;durP1;ratioP1;P1;durP2;ratioP2;P2;SDS_P1;SDS_P2;PMS_P1;PMS_P2;Temp;Humidity;BMP_temperature;BMP_pressure;BME280_temperature;BME280_humidity;BME280_pressure;Samples;Min_cycle;Max_cycle;Signal;HPM_P1;HPM_P2
2022/03/24 00:00:12;;;;;;;58.05;27.85;;;;;;;;;;5071367;28;20118;-77
2022/03/24 00:02:38;;;;;;;67.10;27.60;;;;;;;;;;5054657;28;20045;-77
2022/03/24 00:05:04;;;;;;;69.63;28.75;;;;;;;;;;5070242;28;20033;-77
2022/03/24 00:07:30;;;;;;;62.20;26.35;;;;;;;;;;5054796;28;20535;-77
2022/03/24 00:09:56;;;;;;;64.85;26.55;;;;;;;;;;5054488;28;20075;-77
2022/03/24 00:12:22;;;;;;;59.03;24.98;;;;;;;;;;5054507;28;20043;-77
2022/03/24 00:14:48;;;;;;;67.88;29.17;;;;;;;;;;5054423;28;20173;-76
2022/03/24 00:17:14;;;;;;;65.50;27.20;;;;;;;;;;5054084;28;20052;-76
2022/03/24 00:19:40;;;;;;;64.53;28.80;;;;;;;;;;5054269;28;20113;-77
2022/03/24 00:22:06;;;;;;;70.55;29.52;;;;;;;;;;5054596;28;20040;-77
2022/03/24 00:24:32;;;;;;;58.97;26.48;;;;;;;;;;5054473;28;20151;-77
2022/03/24 00:26:58;;;;;;;65.45;30.27;;;;;;;;;;5070889;28;20066;-77
2022/03/24 00:29:24;;;;;;;68.25;29.33;;;;;;;;;;5054148;28;20127;-77
2022/03/24 00:31:50;;;;;;;75.68;29.20;;;;;;;;;;5054080;28;20048;-77
2022/03/24 00:34:18;;;;;;;65.05;29.27;;;;;;;;;;5053896;28;20044;-76
2022/03/24 00:36:44;;;;;;;65.45;26.15;;;;;;;;;;5053954;28;20048;-77
2022/03/24 00:39:10;;;;;;;61.83;27.20;;;;;;;;;;5070577;28;20515;-77
2022/03/24 00:41:36;;;;;;;69.40;29.65;;;;;;;;;;5070322;28;20036;-77
2022/03/24 00:44:03;;;;;;;76.85;31.33;;;;;;;;;;5053157;28;20040;-77
2022/03/24 00:46:31;;;;;;;69.65;28.83;;;;;;;;;;5053913;28;20510;-77
2022/03/24 00:48:57;;;;;;;73.28;29.55;;;;;;;;;;5053970;28;20040;-77
2022/03/24 00:51:23;;;;;;;74.53;33.22;;;;;;;;;;5053742;28;20126;-76
2022/03/24 00:53:49;;;;;;;75.65;32.35;;;;;;;;;;5070435;28;20278;-77
2022/03/24 00:56:16;;;;;;;66.88;29.33;;;;;;;;;;5070356;28;20052;-77
2022/03/24 00:58:42;;;;;;;68.55;30.25;;;;;;;;;;5053848;28;20045;-77
2022/03/24 01:01:12;;;;;;;67.32;30.20;;;;;;;;;;5070613;28;20033;-76
2022/03/24 01:03:38;;;;;;;74.63;30.40;;;;;;;;;;5053947;28;20094;-76
2022/03/24 01:06:06;;;;;;;67.93;31.98;;;;;;;;;;5053878;28;20094;-76
2022/03/24 01:08:32;;;;;;;63.80;28.70;;;;;;;;;;5053669;28;20037;-77
2022/03/24 01:10:58;;;;;;;78.90;30.70;;;;;;;;;;5053919;28;20606;-77
2022/03/24 01:13:24;;;;;;;76.18;31.13;;;;;;;;;;5053542;28;20127;-77
2022/03/24 01:15:50;;;;;;;58.65;25.85;;;;;;;;;;5052992;28;20411;-77
2022/03/24 01:18:19;;;;;;;60.80;26.15;;;;;;;;;;5053435;28;20450;-77
2022/03/24 01:20:45;;;;;;;69.40;30.63;;;;;;;;;;5053407;28;20113;-77
2022/03/24 01:23:12;;;;;;;75.70;31.52;;;;;;;;;;5053454;28;20143;-77
2022/03/24 01:25:42;;;;;;;86.55;33.08;;;;;;;;;;5070344;28;20514;-77
2022/03/24 01:28:09;;;;;;;76.65;33.30;;;;;;;;;;5070138;28;20080;-77
2022/03/24 01:30:36;;;;;;;77.25;33.28;;;;;;;;;;5070069;28;20532;-77
2022/03/24 01:33:02;;;;;;;71.53;30.65;;;;;;;;;;5070237;28;20040;-77
2022/03/24 01:35:28;;;;;;;73.82;31.45;;;;;;;;;;5069955;28;20147;-77
2022/03/24 01:37:54;;;;;;;74.72;31.55;;;;;;;;;;5053478;28;20523;-79
2022/03/24 01:40:20;;;;;;;75.65;31.10;;;;;;;;;;5054138;28;20131;-79
2022/03/24 01:42:47;;;;;;;68.40;28.65;;;;;;;;;;5053834;28;20040;-79
2022/03/24 01:45:16;;;;;;;65.72;28.75;;;;;;;;;;5054294;28;20044;-79
2022/03/24 01:47:42;;;;;;;73.47;30.77;;;;;;;;;;5070582;28;20037;-79
2022/03/24 01:50:10;;;;;;;74.90;30.75;;;;;;;;;;5053942;28;20052;-79
2022/03/24 01:52:36;;;;;;;71.47;31.17;;;;;;;;;;5054155;28;20083;-79
2022/03/24 01:55:04;;;;;;;77.53;33.22;;;;;;;;;;5070218;28;20037;-79
2022/03/24 01:57:31;;;;;;;65.50;28.75;;;;;;;;;;5053493;28;20041;-79
2022/03/24 01:59:59;;;;;;;66.35;29.55;;;;;;;;;;5053967;28;20040;-79
2022/03/24 02:02:25;;;;;;;69.45;29.95;;;;;;;;;;5070140;28;20133;-79
2022/03/24 02:04:51;;;;;;;78.55;31.50;;;;;;;;;;5069767;28;20032;-79
2022/03/24 02:07:17;;;;;;;69.43;28.23;;;;;;;;;;5053308;28;20079;-79
2022/03/24 02:09:43;;;;;;;75.97;31.60;;;;;;;;;;5053288;28;20041;-79
2022/03/24 02:12:10;;;;;;;79.13;30.52;;;;;;;;;;5053667;28;20173;-79
2022/03/24 02:14:36;;;;;;;75.50;30.75;;;;;;;;;;5070314;28;20469;-79
2022/03/24 02:17:03;;;;;;;74.75;30.23;;;;;;;;;;5053272;28;20139;-79
2022/03/24 02:19:29;;;;;;;72.85;28.83;;;;;;;;;;5053337;28;20402;-79
2022/03/24 02:21:56;;;;;;;75.15;29.17;;;;;;;;;;5053498;28;20135;-78
2022/03/24 02:24:23;;;;;;;68.75;29.63;;;;;;;;;;5053097;28;20039;-79
2022/03/24 02:26:50;;;;;;;76.93;30.85;;;;;;;;;;5070110;28;20620;-79
2022/03/24 02:29:16;;;;;;;73.53;29.52;;;;;;;;;;5072975;28;20043;-78
2022/03/24 02:31:44;;;;;;;82.05;34.58;;;;;;;;;;5057313;28;20041;-79
2022/03/24 02:36:57;;;;;;;78.97;32.13;;;;;;;;;;5073513;28;20048;-79
2022/03/24 02:39:23;;;;;;;82.20;31.90;;;;;;;;;;5073274;28;20040;-79
2022/03/24 02:41:51;;;;;;;84.18;33.75;;;;;;;;;;5073160;28;20047;-79
2022/03/24 02:44:17;;;;;;;79.07;31.52;;;;;;;;;;5073199;28;20126;-79
2022/03/24 02:46:47;;;;;;;76.75;30.42;;;;;;;;;;5056748;28;20085;-79
2022/03/24 02:49:17;;;;;;;70.38;29.00;;;;;;;;;;5056729;28;20127;-79
2022/03/24 02:51:43;;;;;;;74.00;32.22;;;;;;;;;;5073532;28;20047;-79
2022/03/24 02:54:09;;;;;;;79.53;30.42;;;;;;;;;;5056780;28;20044;-79
2022/03/24 02:56:35;;;;;;;75.38;31.58;;;;;;;;;;5056307;28;20052;-79
2022/03/24 02:59:01;;;;;;;83.47;34.00;;;;;;;;;;5056260;28;20040;-79
2022/03/24 03:01:27;;;;;;;77.00;31.98;;;;;;;;;;5072850;28;20040;-79
2022/03/24 03:03:54;;;;;;;65.82;27.10;;;;;;;;;;5072812;28;20492;-79
2022/03/24 03:06:20;;;;;;;66.85;28.23;;;;;;;;;;5056244;28;20064;-79
2022/03/24 03:08:47;;;;;;;70.35;29.08;;;;;;;;;;5056424;28;20041;-79
2022/03/24 03:11:13;;;;;;;74.07;31.52;;;;;;;;;;5056316;28;20387;-79
2022/03/24 03:13:39;;;;;;;73.22;29.15;;;;;;;;;;5056067;28;20047;-79
2022/03/24 03:16:05;;;;;;;70.30;30.48;;;;;;;;;;5072839;28;20061;-79
2022/03/24 03:18:32;;;;;;;80.72;32.40;;;;;;;;;;5056282;28;20043;-79
2022/03/24 03:20:59;;;;;;;79.82;30.90;;;;;;;;;;5055940;28;20072;-79
2022/03/24 03:23:25;;;;;;;67.22;29.08;;;;;;;;;;5055919;28;20041;-79
2022/03/24 03:25:51;;;;;;;59.88;26.10;;;;;;;;;;5072916;28;20082;-79
2022/03/24 03:28:17;;;;;;;64.57;27.55;;;;;;;;;;5056038;28;20044;-79
2022/03/24 03:30:43;;;;;;;70.45;29.33;;;;;;;;;;5056189;28;20039;-79
2022/03/24 03:33:10;;;;;;;69.70;29.27;;;;;;;;;;5072718;28;20055;-79
2022/03/24 03:35:36;;;;;;;76.68;29.02;;;;;;;;;;5055682;28;20404;-79
2022/03/24 03:38:02;;;;;;;66.47;28.05;;;;;;;;;;5072087;28;20082;-79
2022/03/24 03:40:28;;;;;;;66.45;29.27;;;;;;;;;;5055229;28;20040;-79
2022/03/24 03:42:54;;;;;;;61.95;26.58;;;;;;;;;;5055757;28;20476;-79
2022/03/24 03:45:20;;;;;;;56.53;26.13;;;;;;;;;;5055817;28;20036;-79
2022/03/24 03:47:47;;;;;;;57.03;24.13;;;;;;;;;;5055498;28;20051;-79
2022/03/24 03:50:13;;;;;;;54.78;25.42;;;;;;;;;;5072354;28;20144;-79
2022/03/24 03:52:39;;;;;;;44.85;21.55;;;;;;;;;;5071837;28;20037;-79
2022/03/24 03:55:06;;;;;;;58.20;25.38;;;;;;;;;;5055573;28;20123;-79
2022/03/24 03:57:32;;;;;;;61.63;24.13;;;;;;;;;;5055521;28;20040;-79
2022/03/24 04:00:52;;;;;;;44.42;19.70;;;;;;;;;;5071470;28;20048;-79
2022/03/24 04:02:44;;;;;;;48.13;21.70;;;;;;;;;;5071665;28;20158;-79
2022/03/24 04:05:10;;;;;;;43.97;19.80;;;;;;;;;;5054889;28;20123;-79
2022/03/24 04:07:36;;;;;;;39.55;19.70;;;;;;;;;;5071561;28;20029;-79
2022/03/24 04:10:02;;;;;;;41.95;19.58;;;;;;;;;;5054858;28;20047;-79
2022/03/24 04:12:28;;;;;;;51.85;21.15;;;;;;;;;;5055034;28;20044;-79
2022/03/24 04:14:54;;;;;;;63.65;28.00;;;;;;;;;;5071342;28;20044;-79
2022/03/24 04:17:20;;;;;;;58.83;23.88;;;;;;;;;;5054356;28;20102;-79
2022/03/24 04:19:46;;;;;;;61.28;25.10;;;;;;;;;;5054524;28;20049;-79
2022/03/24 04:22:13;;;;;;;51.00;23.23;;;;;;;;;;5071145;28;20037;-79
2022/03/24 04:24:39;;;;;;;47.28;21.20;;;;;;;;;;5054653;28;20461;-79
2022/03/24 04:27:06;;;;;;;69.45;18.02;;;;;;;;;;5054342;28;20044;-79
2022/03/24 04:29:32;;;;;;;55.55;10.90;;;;;;;;;;5054609;28;20052;-79
2022/03/24 04:31:58;;;;;;;14.38;8.68;;;;;;;;;;5054330;28;20074;-79
2022/03/24 04:34:23;;;;;;;21.63;11.07;;;;;;;;;;5054633;28;20041;-80
2022/03/24 04:36:49;;;;;;;16.30;8.50;;;;;;;;;;5070874;28;20155;-79
2022/03/24 04:39:15;;;;;;;13.38;5.75;;;;;;;;;;5070905;28;20488;-79
2022/03/24 04:41:42;;;;;;;17.67;8.95;;;;;;;;;;5054319;28;20513;-79
2022/03/24 04:44:08;;;;;;;33.28;13.90;;;;;;;;;;5054650;28;20110;-79
2022/03/24 04:46:34;;;;;;;27.05;13.48;;;;;;;;;;5070710;28;20041;-79
2022/03/24 04:49:02;;;;;;;34.10;15.55;;;;;;;;;;5054289;28;20106;-79
2022/03/24 04:51:28;;;;;;;21.77;10.65;;;;;;;;;;5053650;28;20583;-79
2022/03/24 04:53:54;;;;;;;43.47;20.42;;;;;;;;;;5070861;28;20080;-79
2022/03/24 04:56:20;;;;;;;42.15;19.75;;;;;;;;;;5071205;28;20087;-78
2022/03/24 04:58:46;;;;;;;60.88;25.65;;;;;;;;;;5071391;28;20128;-78
2022/03/24 05:01:16;;;;;;;68.82;29.70;;;;;;;;;;5054667;28;20032;-78
2022/03/24 05:03:46;;;;;;;34.20;18.02;;;;;;;;;;5071282;28;20036;-78
2022/03/24 05:06:13;;;;;;;41.77;19.10;;;;;;;;;;5071228;28;20047;-79
2022/03/24 05:08:39;;;;;;;37.45;17.48;;;;;;;;;;5054235;28;20052;-78
2022/03/24 05:11:05;;;;;;;36.67;17.73;;;;;;;;;;5054082;28;20046;-79
2022/03/24 05:13:31;;;;;;;57.60;24.85;;;;;;;;;;5070719;28;20037;-78
2022/03/24 05:15:57;;;;;;;61.55;24.90;;;;;;;;;;5054045;28;20577;-78
2022/03/24 05:18:24;;;;;;;62.80;24.85;;;;;;;;;;5070835;28;20412;-78
2022/03/24 05:20:50;;;;;;;60.38;25.90;;;;;;;;;;5053997;28;20040;-79
2022/03/24 05:23:16;;;;;;;60.33;25.02;;;;;;;;;;5070735;28;20040;-79
2022/03/24 05:25:44;;;;;;;48.85;20.80;;;;;;;;;;5053944;28;20037;-78
2022/03/24 05:28:10;;;;;;;57.85;24.25;;;;;;;;;;5070522;28;20048;-76
2022/03/24 05:30:36;;;;;;;44.72;22.15;;;;;;;;;;5070426;28;20051;-76
2022/03/24 05:33:03;;;;;;;45.50;20.38;;;;;;;;;;5053312;28;20045;-76
2022/03/24 05:35:32;;;;;;;42.03;17.60;;;;;;;;;;5070309;28;20131;-76
2022/03/24 05:37:58;;;;;;;35.88;16.58;;;;;;;;;;5053705;28;20109;-78
2022/03/24 05:40:24;;;;;;;64.25;26.55;;;;;;;;;;5054143;28;20067;-79
2022/03/24 05:42:50;;;;;;;64.95;26.83;;;;;;;;;;5070687;28;20131;-78
2022/03/24 05:45:16;;;;;;;58.55;25.77;;;;;;;;;;5054037;28;20128;-78
2022/03/24 05:47:42;;;;;;;58.40;23.75;;;;;;;;;;5053667;28;20045;-79
2022/03/24 05:50:09;;;;;;;47.95;21.92;;;;;;;;;;5053784;28;20044;-79
2022/03/24 05:52:35;;;;;;;35.38;15.57;;;;;;;;;;5053443;28;20431;-78
2022/03/24 05:55:01;;;;;;;41.53;18.00;;;;;;;;;;5053458;28;20040;-78
2022/03/24 05:57:27;;;;;;;36.05;18.05;;;;;;;;;;5053427;28;20447;-78
2022/03/24 05:59:53;;;;;;;36.47;17.13;;;;;;;;;;5053123;28;20049;-78
2022/03/24 06:02:20;;;;;;;29.60;15.55;;;;;;;;;;5053482;28;20085;-78
2022/03/24 06:04:47;;;;;;;33.35;16.25;;;;;;;;;;5057251;28;20047;-79
2022/03/24 06:07:14;;;;;;;38.08;18.42;;;;;;;;;;5057158;28;20093;-79
2022/03/24 06:09:40;;;;;;;46.10;20.83;;;;;;;;;;5073619;28;20048;-79
2022/03/24 06:12:10;;;;;;;49.35;20.27;;;;;;;;;;5073790;28;20485;-78
2022/03/24 06:14:37;;;;;;;57.53;25.08;;;;;;;;;;5073857;28;20041;-79
2022/03/24 06:17:03;;;;;;;54.70;22.90;;;;;;;;;;5056589;28;20056;-79
2022/03/24 06:19:29;;;;;;;54.72;22.98;;;;;;;;;;5056711;28;20459;-78
2022/03/24 06:21:56;;;;;;;59.97;24.17;;;;;;;;;;5073564;28;20037;-78
2022/03/24 06:24:22;;;;;;;63.20;25.05;;;;;;;;;;5073429;28;20047;-78
2022/03/24 06:26:48;;;;;;;70.55;28.50;;;;;;;;;;5057061;28;20032;-79
2022/03/24 06:29:14;;;;;;;61.33;25.27;;;;;;;;;;5074573;28;20062;-79
2022/03/24 06:31:41;;;;;;;59.20;25.67;;;;;;;;;;5057922;28;20041;-78
2022/03/24 06:34:08;;;;;;;49.17;24.88;;;;;;;;;;5074531;28;20040;-78
2022/03/24 06:36:34;;;;;;;60.92;26.33;;;;;;;;;;5057347;28;20056;-78
2022/03/24 06:39:00;;;;;;;57.08;24.15;;;;;;;;;;5056680;28;20089;-78
2022/03/24 06:41:27;;;;;;;50.75;23.02;;;;;;;;;;5056469;28;20037;-78
2022/03/24 06:43:55;;;;;;;52.28;25.02;;;;;;;;;;5072822;28;20032;-78
2022/03/24 06:46:22;;;;;;;47.08;22.33;;;;;;;;;;5056182;28;20417;-78
2022/03/24 06:48:48;;;;;;;58.80;24.58;;;;;;;;;;5073006;28;20118;-78
2022/03/24 06:51:14;;;;;;;62.67;27.30;;;;;;;;;;5056120;28;20040;-78
2022/03/24 06:53:40;;;;;;;52.90;24.42;;;;;;;;;;5072702;28;20050;-78
2022/03/24 06:56:06;;;;;;;56.42;25.27;;;;;;;;;;5072895;28;20048;-78
2022/03/24 06:58:32;;;;;;;66.03;28.73;;;;;;;;;;5072335;28;20033;-78
2022/03/24 07:00:58;;;;;;;57.28;26.13;;;;;;;;;;5069378;28;20102;-78
2022/03/24 07:03:24;;;;;;;67.07;30.23;;;;;;;;;;5068753;28;20072;-78
2022/03/24 07:05:50;;;;;;;65.88;30.10;;;;;;;;;;5068893;28;20516;-78
2022/03/24 07:08:16;;;;;;;81.32;32.30;;;;;;;;;;5052007;28;20310;-78
2022/03/24 07:10:42;;;;;;;86.82;37.28;;;;;;;;;;5068913;28;20050;-78
2022/03/24 07:13:08;;;;;;;79.57;34.97;;;;;;;;;;5051402;28;20101;-78
2022/03/24 07:15:34;;;;;;;74.97;32.13;;;;;;;;;;5068675;28;20033;-79
2022/03/24 07:18:00;;;;;;;78.55;33.03;;;;;;;;;;5051143;28;20056;-76
2022/03/24 07:20:27;;;;;;;67.22;30.77;;;;;;;;;;5068267;28;20060;-76
2022/03/24 07:22:57;;;;;;;64.60;32.90;;;;;;;;;;5051601;28;20068;-76
2022/03/24 07:25:23;;;;;;;65.85;30.30;;;;;;;;;;5068556;28;20036;-76
2022/03/24 07:27:50;;;;;;;66.93;30.60;;;;;;;;;;5068373;28;20051;-77
2022/03/24 07:30:16;;;;;;;63.15;30.85;;;;;;;;;;5067767;28;20056;-76
2022/03/24 07:32:43;;;;;;;64.88;31.00;;;;;;;;;;5051209;28;20056;-77
2022/03/24 07:35:10;;;;;;;56.80;28.67;;;;;;;;;;5067968;28;20075;-76
2022/03/24 07:37:36;;;;;;;62.95;31.42;;;;;;;;;;5065406;28;20048;-76
2022/03/24 07:40:02;;;;;;;55.53;28.48;;;;;;;;;;5067596;28;20063;-76
2022/03/24 07:42:29;;;;;;;58.17;29.45;;;;;;;;;;5051481;28;20048;-77
2022/03/24 07:44:55;;;;;;;57.90;29.52;;;;;;;;;;5068007;28;20094;-77
2022/03/24 07:47:22;;;;;;;60.40;30.17;;;;;;;;;;5067855;28;20040;-77
2022/03/24 07:49:48;;;;;;;53.47;29.23;;;;;;;;;;5051404;28;20080;-77
2022/03/24 07:52:15;;;;;;;55.03;28.80;;;;;;;;;;5067362;28;20079;-76
2022/03/24 07:54:56;;;;;;;54.70;30.73;;;;;;;;;;5051066;28;20075;-77
2022/03/24 07:57:23;;;;;;;57.60;30.40;;;;;;;;;;5065934;28;20655;-77
2022/03/24 07:59:49;;;;;;;51.67;29.77;;;;;;;;;;5050863;28;20125;-77
2022/03/24 08:02:17;;;;;;;47.60;26.67;;;;;;;;;;5051068;28;20146;-76
2022/03/24 08:04:43;;;;;;;49.30;27.10;;;;;;;;;;5066929;28;20111;-77
2022/03/24 08:07:09;;;;;;;53.60;29.15;;;;;;;;;;5067382;28;20043;-77
2022/03/24 08:09:36;;;;;;;54.53;29.90;;;;;;;;;;5050543;28;20090;-77
2022/03/24 08:12:02;;;;;;;49.25;27.77;;;;;;;;;;5050668;28;20037;-77
2022/03/24 08:14:28;;;;;;;51.67;40.15;;;;;;;;;;5067567;28;20052;-78
2022/03/24 08:16:54;;;;;;;48.17;26.60;;;;;;;;;;5066656;28;20526;-77
2022/03/24 08:19:21;;;;;;;45.83;25.25;;;;;;;;;;5067183;28;20060;-77
2022/03/24 08:21:47;;;;;;;48.80;38.58;;;;;;;;;;5050462;28;20033;-77
2022/03/24 08:24:13;;;;;;;51.30;38.35;;;;;;;;;;5067077;28;20571;-77
2022/03/24 08:26:40;;;;;;;47.35;27.80;;;;;;;;;;5066403;28;20051;-77
2022/03/24 08:29:06;;;;;;;47.25;37.50;;;;;;;;;;5066784;28;20040;-77
2022/03/24 08:31:33;;;;;;;48.90;37.45;;;;;;;;;;5050361;28;20625;-77
2022/03/24 08:33:59;;;;;;;49.38;38.33;;;;;;;;;;5066572;28;20036;-78
2022/03/24 08:36:25;;;;;;;50.08;39.33;;;;;;;;;;5050966;28;20063;-77
2022/03/24 08:38:52;;;;;;;57.67;41.40;;;;;;;;;;5049870;28;20454;-77
2022/03/24 08:41:17;;;;;;;55.92;39.95;;;;;;;;;;5066186;28;20127;-77
2022/03/24 08:43:43;;;;;;;43.00;34.17;;;;;;;;;;5050114;28;20123;-77
2022/03/24 08:46:10;;;;;;;47.55;38.47;;;;;;;;;;5066838;28;20473;-77
2022/03/24 08:48:36;;;;;;;46.63;36.17;;;;;;;;;;5064077;28;20044;-78
2022/03/24 08:51:03;;;;;;;46.58;36.10;;;;;;;;;;5049728;28;20044;-78
2022/03/24 08:53:29;;;;;;;46.63;36.58;;;;;;;;;;5066017;28;20044;-78
2022/03/24 08:55:55;;;;;;;45.90;34.45;;;;;;;;;;5066372;28;20103;-78
2022/03/24 08:58:21;;;;;;;49.13;35.38;;;;;;;;;;5049743;28;20040;-78
2022/03/24 09:00:48;;;;;;;51.08;35.17;;;;;;;;;;5066912;28;20089;-78
2022/03/24 09:03:14;;;;;;;44.22;34.22;;;;;;;;;;5066974;28;20049;-79
2022/03/24 09:05:40;;;;;;;46.13;34.13;;;;;;;;;;5066612;28;20047;-78
2022/03/24 09:08:06;;;;;;;41.53;33.60;;;;;;;;;;5050009;28;20045;-78
2022/03/24 09:10:32;;;;;;;48.97;36.33;;;;;;;;;;5049849;28;20075;-77
2022/03/24 09:12:58;;;;;;;48.72;36.42;;;;;;;;;;5067020;28;20036;-78
2022/03/24 09:15:24;;;;;;;47.45;35.28;;;;;;;;;;5066991;28;20036;-78
2022/03/24 09:17:51;;;;;;;50.67;36.28;;;;;;;;;;5049259;28;20488;-78
2022/03/24 09:20:19;;;;;;;51.38;37.05;;;;;;;;;;5050242;28;20493;-78
2022/03/24 09:22:46;;;;;;;46.40;24.77;;;;;;;;;;5066839;28;20048;-78
2022/03/24 09:25:13;;;;;;;45.42;23.00;;;;;;;;;;5050044;28;20051;-78
2022/03/24 09:27:39;;;;;;;47.97;23.90;;;;;;;;;;5066541;28;20483;-79
2022/03/24 09:30:12;;;;;;;41.88;22.38;;;;;;;;;;5049486;28;20463;-78
2022/03/24 09:32:38;;;;;;;45.88;21.75;;;;;;;;;;5049892;28;20095;-78
2022/03/24 09:35:04;;;;;;;39.17;21.33;;;;;;;;;;5050121;28;20052;-78
2022/03/24 09:37:32;;;;;;;44.72;21.63;;;;;;;;;;5069310;28;20044;-79
2022/03/24 09:40:00;;;;;;;44.92;22.85;;;;;;;;;;5070768;28;20518;-78
2022/03/24 09:42:26;;;;;;;41.95;22.08;;;;;;;;;;5053787;28;20079;-78
2022/03/24 09:44:52;;;;;;;48.53;20.67;;;;;;;;;;5070474;28;20043;-78
2022/03/24 09:47:18;;;;;;;44.28;21.30;;;;;;;;;;5053733;28;20126;-78
2022/03/24 09:49:44;;;;;;;48.15;22.17;;;;;;;;;;5053609;28;20040;-78
2022/03/24 09:52:11;;;;;;;48.58;22.92;;;;;;;;;;5053685;28;20440;-78
2022/03/24 09:54:38;;;;;;;41.55;20.60;;;;;;;;;;5053541;28;20390;-78
2022/03/24 09:57:08;;;;;;;44.33;20.25;;;;;;;;;;5053694;28;20040;-78
2022/03/24 09:59:34;;;;;;;50.92;20.17;;;;;;;;;;5053410;28;20079;-78
2022/03/24 10:02:01;;;;;;;36.65;17.27;;;;;;;;;;5053592;28;20041;-77
2022/03/24 10:04:27;;;;;;;38.40;18.67;;;;;;;;;;5053663;28;20129;-78
2022/03/24 10:07:01;;;;;;;36.83;17.80;;;;;;;;;;5071135;28;20123;-78
2022/03/24 10:09:40;;;;;;;48.97;24.55;;;;;;;;;;5053668;28;20500;-78
2022/03/24 10:12:08;;;;;;;49.53;19.48;;;;;;;;;;5053639;28;20087;-77
2022/03/24 10:14:34;;;;;;;41.13;20.55;;;;;;;;;;5053491;28;20496;-79
2022/03/24 10:17:09;;;;;;;39.85;20.20;;;;;;;;;;5069376;28;20079;-78
2022/03/24 10:19:36;;;;;;;47.38;22.98;;;;;;;;;;5052931;28;20332;-78
2022/03/24 10:22:09;;;;;;;44.85;21.92;;;;;;;;;;5053380;28;20816;-78
2022/03/24 10:24:43;;;;;;;44.85;21.02;;;;;;;;;;5070048;28;20094;-77
2022/03/24 10:27:11;;;;;;;58.00;24.08;;;;;;;;;;5069938;28;20713;-78
2022/03/24 10:29:37;;;;;;;46.85;21.67;;;;;;;;;;5053231;28;20041;-77
2022/03/24 10:32:05;;;;;;;47.00;21.33;;;;;;;;;;5054215;28;20037;-77
2022/03/24 10:34:30;;;;;;;47.88;21.10;;;;;;;;;;5056860;28;20090;-78
2022/03/24 10:36:56;;;;;;;45.25;22.00;;;;;;;;;;5057603;28;20440;-78
2022/03/24 10:39:26;;;;;;;45.00;21.10;;;;;;;;;;5057210;28;20052;-78
2022/03/24 10:41:52;;;;;;;43.95;19.73;;;;;;;;;;5073168;28;20070;-78
2022/03/24 10:44:18;;;;;;;40.55;19.67;;;;;;;;;;5072823;28;20040;-78
2022/03/24 10:46:45;;;;;;;37.75;18.98;;;;;;;;;;5057274;28;20480;-75
2022/03/24 10:49:23;;;;;;;42.33;20.23;;;;;;;;;;5072063;28;20044;-77
2022/03/24 10:51:49;;;;;;;40.17;18.98;;;;;;;;;;5073003;28;20041;-75
2022/03/24 10:54:15;;;;;;;42.00;19.20;;;;;;;;;;5072947;28;20047;-75
2022/03/24 10:56:51;;;;;;;42.42;19.92;;;;;;;;;;5056616;28;20496;-77
2022/03/24 10:59:17;;;;;;;40.45;20.00;;;;;;;;;;5055986;28;20040;-77
2022/03/24 11:01:43;;;;;;;41.17;18.08;;;;;;;;;;5072917;28;20040;-77
2022/03/24 11:04:09;;;;;;;41.08;19.10;;;;;;;;;;5072649;28;20040;-78
2022/03/24 11:06:35;;;;;;;38.92;18.67;;;;;;;;;;5052090;28;20041;-77
2022/03/24 11:09:01;;;;;;;42.72;19.17;;;;;;;;;;5053113;28;20524;-77
2022/03/24 11:11:28;;;;;;;38.90;17.83;;;;;;;;;;5036239;28;20052;-76
2022/03/24 11:13:55;;;;;;;39.33;18.92;;;;;;;;;;5052291;28;20145;-77
2022/03/24 11:16:26;;;;;;;45.65;20.42;;;;;;;;;;5035627;28;20481;-79
2022/03/24 11:18:52;;;;;;;;;;;;;;;;;;5052864;28;20049;-79
2022/03/24 11:21:23;;;;;;;40.85;18.48;;;;;;;;;;5052498;28;19963;-78
2022/03/24 11:23:53;;;;;;;41.55;18.27;;;;;;;;;;5035827;28;20087;-77
2022/03/24 11:26:19;;;;;;;38.67;18.60;;;;;;;;;;5052665;28;20124;-79
2022/03/24 11:28:46;;;;;;;39.22;19.77;;;;;;;;;;5035597;28;20051;-78
2022/03/24 11:31:13;;;;;;;34.25;17.13;;;;;;;;;;5036140;28;20151;-78
2022/03/24 11:33:41;;;;;;;34.10;16.27;;;;;;;;;;5035394;28;20095;-78
2022/03/24 11:36:08;;;;;;;35.35;16.80;;;;;;;;;;5035382;28;20090;-78
2022/03/24 11:38:34;;;;;;;40.83;15.77;;;;;;;;;;5052066;28;20083;-77
2022/03/24 11:41:01;;;;;;;39.20;16.77;;;;;;;;;;5035270;28;20041;-78
2022/03/24 11:43:27;;;;;;;32.17;15.45;;;;;;;;;;5035397;28;20082;-77
2022/03/24 11:46:04;;;;;;;30.80;15.40;;;;;;;;;;5035117;28;20087;-77
2022/03/24 11:48:37;;;;;;;34.92;15.68;;;;;;;;;;5051685;28;20075;-77
2022/03/24 11:51:05;;;;;;;36.50;17.23;;;;;;;;;;5034929;28;20400;-78
2022/03/24 11:53:30;;;;;;;35.25;16.42;;;;;;;;;;5035291;28;20056;-78
2022/03/24 11:55:59;;;;;;;37.00;14.90;;;;;;;;;;5044607;28;20044;-77
2022/03/24 11:58:26;;;;;;;36.22;15.98;;;;;;;;;;5067875;28;20044;-77
2022/03/24 12:00:52;;;;;;;28.98;14.63;;;;;;;;;;5051683;28;20515;-77
2022/03/24 12:03:41;;;;;;;45.90;14.93;;;;;;;;;;5050688;28;20051;-78
2022/03/24 12:06:08;;;;;;;37.08;15.00;;;;;;;;;;5062815;28;20070;-77
2022/03/24 12:08:49;;;;;;;37.50;17.10;;;;;;;;;;5068303;28;20048;-77
2022/03/24 12:11:33;;;;;;;29.40;14.00;;;;;;;;;;5068131;28;20079;-77
2022/03/24 12:14:07;;;;;;;30.27;15.13;;;;;;;;;;5068120;28;20415;-78
2022/03/24 12:16:35;;;;;;;30.52;14.18;;;;;;;;;;5050899;28;20582;-77
2022/03/24 12:19:02;;;;;;;25.83;12.40;;;;;;;;;;5051011;28;20040;-78
2022/03/24 12:21:29;;;;;;;32.13;14.80;;;;;;;;;;5051610;28;20106;-78
2022/03/24 12:24:07;;;;;;;34.00;16.33;;;;;;;;;;5050736;28;20423;-78
2022/03/24 12:26:37;;;;;;;33.92;15.38;;;;;;;;;;5050338;28;20032;-77
2022/03/24 12:29:24;;;;;;;37.58;16.30;;;;;;;;;;5050814;28;20346;-76
2022/03/24 12:32:05;;;;;;;38.95;16.20;;;;;;;;;;5050679;28;20157;-77
2022/03/24 12:34:44;;;;;;;34.70;16.15;;;;;;;;;;5067747;28;20044;-78
2022/03/24 12:37:31;;;;;;;34.05;16.73;;;;;;;;;;5067646;28;20055;-79
2022/03/24 12:40:07;;;;;;;34.15;16.13;;;;;;;;;;5049963;28;20033;-78
2022/03/24 12:43:02;;;;;;;35.97;16.55;;;;;;;;;;5051581;28;20064;-78
2022/03/24 12:45:46;;;;;;;38.65;17.65;;;;;;;;;;5045458;28;20048;-77
2022/03/24 12:48:12;;;;;;;39.63;15.88;;;;;;;;;;5056887;28;20040;-78
2022/03/24 12:50:38;;;;;;;30.08;13.85;;;;;;;;;;5055404;28;20384;-77
2022/03/24 12:53:05;;;;;;;42.50;18.30;;;;;;;;;;5055436;28;20043;-76
2022/03/24 12:55:32;;;;;;;35.33;15.55;;;;;;;;;;5055103;28;20040;-78
2022/03/24 12:58:10;;;;;;;38.13;17.88;;;;;;;;;;5054669;28;20025;-79
2022/03/24 13:00:40;;;;;;;37.55;19.48;;;;;;;;;;5070890;28;20066;-77
2022/03/24 13:03:06;;;;;;;36.70;19.38;;;;;;;;;;5053760;28;20040;-76
2022/03/24 13:05:33;;;;;;;36.85;18.00;;;;;;;;;;5053252;28;20075;-77
2022/03/24 13:08:01;;;;;;;39.75;17.20;;;;;;;;;;5067159;28;20037;-77
2022/03/24 13:10:28;;;;;;;38.53;18.38;;;;;;;;;;5069860;28;20076;-80
2022/03/24 13:12:55;;;;;;;40.22;19.77;;;;;;;;;;5052789;28;20072;-77
2022/03/24 13:15:27;;;;;;;36.10;18.42;;;;;;;;;;5056636;28;20036;-80
2022/03/24 13:17:57;;;;;;;45.63;20.25;;;;;;;;;;5071081;28;20052;-80
2022/03/24 13:20:24;;;;;;;33.45;15.45;;;;;;;;;;5056013;28;20040;-76
2022/03/24 13:22:50;;;;;;;42.80;19.58;;;;;;;;;;5072072;28;20036;-78
2022/03/24 13:25:17;;;;;;;35.47;18.80;;;;;;;;;;5053279;28;20040;-77
2022/03/24 13:27:45;;;;;;;40.88;19.65;;;;;;;;;;5053494;28;20039;-76
2022/03/24 13:30:14;;;;;;;46.25;20.58;;;;;;;;;;5069777;28;20090;-77
2022/03/24 13:32:41;;;;;;;36.78;18.38;;;;;;;;;;5053158;28;20485;-80
2022/03/24 13:35:07;;;;;;;37.33;18.35;;;;;;;;;;5053695;28;20463;-79
2022/03/24 13:37:43;;;;;;;36.30;18.88;;;;;;;;;;5053291;28;20086;-77
2022/03/24 13:40:11;;;;;;;42.97;20.17;;;;;;;;;;5069170;28;20427;-80
2022/03/24 13:42:38;;;;;;;37.70;19.50;;;;;;;;;;5054424;28;20111;-77
2022/03/24 13:45:05;;;;;;;41.08;20.15;;;;;;;;;;5053174;28;20028;-78
2022/03/24 13:47:31;;;;;;;38.97;17.98;;;;;;;;;;5069586;28;20399;-77
2022/03/24 13:50:05;;;;;;;40.40;19.00;;;;;;;;;;5069514;28;20139;-73
2022/03/24 13:52:44;;;;;;;53.35;19.77;;;;;;;;;;5074528;28;20045;-75
2022/03/24 13:55:17;;;;;;;50.22;23.63;;;;;;;;;;5078309;28;20043;-80
2022/03/24 13:57:48;;;;;;;45.28;22.08;;;;;;;;;;5063282;28;20044;-77
2022/03/24 14:00:14;;;;;;;;;;;;;;;;;;5073816;28;20036;-77
2022/03/24 14:02:42;;;;;;;34.67;18.02;;;;;;;;;;5061264;28;19965;-79
2022/03/24 14:05:13;;;;;;;49.17;24.77;;;;;;;;;;5060732;28;20040;-77
2022/03/24 14:07:59;;;;;;;44.63;21.27;;;;;;;;;;5060816;28;20028;-78
2022/03/24 14:10:45;;;;;;;49.78;22.73;;;;;;;;;;5058382;28;20037;-78
2022/03/24 14:13:13;;;;;;;52.22;24.50;;;;;;;;;;5078411;28;20044;-80
2022/03/24 14:15:39;;;;;;;58.45;24.58;;;;;;;;;;5056326;28;20044;-78
2022/03/24 14:18:22;;;;;;;44.97;20.77;;;;;;;;;;5072396;28;20468;-77
2022/03/24 14:20:49;;;;;;;55.08;26.98;;;;;;;;;;5055433;28;20048;-79
2022/03/24 14:23:31;;;;;;;58.00;27.13;;;;;;;;;;5053604;28;20033;-78